createdAt,value
2022-11-04T00:00:05.668Z,16.30
2022-11-04T00:02:34.457Z,16.00
2022-11-04T00:05:03.334Z,16.00
2022-11-04T00:08:07.899Z,16.00
2022-11-04T00:10:54.272Z,15.80
2022-11-04T00:13:24.571Z,15.80
2022-11-04T00:16:10.583Z,15.80
2022-11-04T00:18:39.391Z,15.90
2022-11-04T00:21:25.400Z,15.90
2022-11-04T00:24:11.664Z,15.80
2022-11-04T00:27:09.446Z,15.80
2022-11-04T00:29:39.857Z,15.80
2022-11-04T00:32:26.366Z,15.90
2022-11-04T00:34:55.325Z,15.80
2022-11-04T00:37:24.065Z,15.80
2022-11-04T00:39:52.887Z,15.80
2022-11-04T00:42:21.757Z,15.80
2022-11-04T00:44:52.037Z,15.80
2022-11-04T00:47:20.798Z,15.90
2022-11-04T00:49:49.591Z,15.90
2022-11-04T00:52:18.582Z,15.80
2022-11-04T00:54:47.506Z,15.70
2022-11-04T00:57:16.870Z,15.60
2022-11-04T00:59:45.931Z,15.60
2022-11-04T01:02:16.573Z,15.70
2022-11-04T01:04:45.620Z,15.60
2022-11-04T01:07:14.401Z,15.60
2022-11-04T01:09:43.243Z,15.60
2022-11-04T01:12:12.087Z,15.50
2022-11-04T01:14:41.203Z,15.50
2022-11-04T01:17:10.424Z,15.50
2022-11-04T01:19:40.723Z,15.40
2022-11-04T01:22:09.666Z,15.40
2022-11-04T01:24:38.445Z,15.30
2022-11-04T01:27:07.306Z,15.40
2022-11-04T01:29:36.210Z,15.30
2022-11-04T01:32:05.036Z,15.20
2022-11-04T01:34:34.596Z,15.20
2022-11-04T01:37:07.222Z,15.20
2022-11-04T01:39:36.102Z,15.30
2022-11-04T01:44:53.631Z,15.20
2022-11-04T01:47:27.946Z,15.00
2022-11-04T01:50:01.068Z,15.10
2022-11-04T01:52:37.578Z,15.00
2022-11-04T01:55:14.785Z,15.10
2022-11-04T01:57:47.689Z,15.00
2022-11-04T02:00:17.657Z,15.00
2022-11-04T02:02:55.182Z,15.10
2022-11-04T02:05:24.411Z,15.10
2022-11-04T02:07:58.105Z,15.20
2022-11-04T02:10:28.880Z,15.20
2022-11-04T02:12:58.567Z,15.40
2022-11-04T02:15:36.938Z,15.20
2022-11-04T02:18:15.617Z,15.10
2022-11-04T02:21:22.323Z,15.20
2022-11-04T02:24:30.151Z,15.20
2022-11-04T02:27:32.146Z,15.30
2022-11-04T02:30:07.887Z,15.20
2022-11-04T02:33:05.084Z,15.40
2022-11-04T02:35:49.247Z,15.30
2022-11-04T02:38:27.443Z,15.30
2022-11-04T02:41:18.774Z,15.20
2022-11-04T02:43:54.500Z,15.30
2022-11-04T02:46:47.598Z,15.30
2022-11-04T02:49:20.777Z,15.30
2022-11-04T02:51:56.446Z,15.30
2022-11-04T02:54:29.855Z,15.20
2022-11-04T02:57:02.067Z,15.30
2022-11-04T02:59:35.479Z,15.20
2022-11-04T03:02:09.431Z,15.20
2022-11-04T03:04:43.379Z,15.10
2022-11-04T03:07:16.452Z,15.20
2022-11-04T03:09:52.621Z,15.30
2022-11-04T03:12:27.386Z,15.40
2022-11-04T03:15:01.258Z,15.30
2022-11-04T03:17:36.679Z,15.30
2022-11-04T03:20:10.767Z,15.30
2022-11-04T03:22:40.297Z,15.20
2022-11-04T03:25:10.687Z,15.40
2022-11-04T03:27:49.081Z,15.30
2022-11-04T03:30:19.757Z,15.40
2022-11-04T03:32:59.026Z,15.30
2022-11-04T03:35:30.262Z,15.40
2022-11-04T03:37:59.664Z,15.40
2022-11-04T03:40:28.486Z,15.40
2022-11-04T03:43:01.267Z,15.50
2022-11-04T03:45:30.738Z,15.50
2022-11-04T03:48:01.628Z,15.40
2022-11-04T03:50:49.503Z,17.40
2022-11-04T03:53:38.054Z,15.50
2022-11-04T03:56:33.040Z,15.60
2022-11-04T03:59:16.329Z,15.60
2022-11-04T04:01:52.138Z,15.60
2022-11-04T04:04:29.603Z,15.60
2022-11-04T04:07:04.460Z,15.50
2022-11-04T04:09:40.653Z,13.20
2022-11-04T04:12:15.813Z,15.90
2022-11-04T04:14:49.680Z,15.60
2022-11-04T04:17:22.989Z,15.70
2022-11-04T04:19:57.665Z,15.70
2022-11-04T04:22:31.631Z,15.80
2022-11-04T04:25:21.249Z,14.90
2022-11-04T04:28:09.129Z,15.80
2022-11-04T04:30:38.408Z,15.90
2022-11-04T04:33:10.320Z,15.90
2022-11-04T04:35:44.940Z,16.00
2022-11-04T04:38:38.860Z,15.90
2022-11-04T04:41:30.510Z,16.00
2022-11-04T04:44:19.354Z,16.10
2022-11-04T04:46:50.582Z,16.10
2022-11-04T04:49:19.825Z,16.20
2022-11-04T04:51:50.324Z,16.40
2022-11-04T04:54:19.204Z,16.40
2022-11-04T04:56:48.074Z,16.30
2022-11-04T04:59:16.944Z,16.40
2022-11-04T05:02:05.222Z,16.40
2022-11-04T05:04:34.244Z,16.40
2022-11-04T05:07:04.419Z,16.50
2022-11-04T05:09:51.656Z,16.40
2022-11-04T05:12:20.704Z,16.50
2022-11-04T05:14:49.514Z,16.50
2022-11-04T05:17:18.595Z,16.60
2022-11-04T05:19:47.385Z,16.50
2022-11-04T05:22:17.777Z,16.50
2022-11-04T05:24:46.675Z,16.40
2022-11-04T05:27:15.453Z,16.50
2022-11-04T05:30:02.722Z,16.50
2022-11-04T05:32:32.944Z,16.60
2022-11-04T05:35:02.124Z,16.50
2022-11-04T05:37:32.383Z,16.50
2022-11-04T05:40:01.284Z,16.60
2022-11-04T05:42:30.875Z,16.20
2022-11-04T05:44:59.665Z,16.50
2022-11-04T05:47:28.455Z,16.60
2022-11-04T05:49:57.253Z,16.50
2022-11-04T05:52:26.135Z,16.60
2022-11-04T05:55:16.067Z,16.60
2022-11-04T05:57:45.063Z,16.50
2022-11-04T06:00:15.686Z,16.50
2022-11-04T06:02:44.564Z,16.60
2022-11-04T06:05:13.597Z,16.60
2022-11-04T06:07:42.394Z,16.50
2022-11-04T06:10:12.923Z,16.70
2022-11-04T06:12:43.403Z,16.60
2022-11-04T06:15:12.673Z,16.60
2022-11-04T06:17:41.502Z,16.60
2022-11-04T06:20:11.610Z,16.60
2022-11-04T06:22:40.442Z,16.70
2022-11-04T06:25:10.039Z,16.60
2022-11-04T06:27:38.823Z,16.60
2022-11-04T06:30:10.724Z,16.70
2022-11-04T06:32:57.888Z,16.70
2022-11-04T06:35:26.699Z,16.60
2022-11-04T06:37:57.069Z,16.70
2022-11-04T06:40:44.444Z,16.60
2022-11-04T06:43:13.282Z,16.60
2022-11-04T06:45:43.558Z,16.60
2022-11-04T06:48:12.525Z,16.60
2022-11-04T06:50:41.356Z,16.50
2022-11-04T06:53:10.504Z,16.70
2022-11-04T06:56:04.069Z,16.60
2022-11-04T06:58:32.889Z,16.60
2022-11-04T07:01:09.094Z,16.60
2022-11-04T07:03:41.609Z,16.50
2022-11-04T07:06:11.409Z,16.40
2022-11-04T07:08:41.131Z,16.40
2022-11-04T07:11:09.942Z,16.50
2022-11-04T07:13:38.776Z,16.50
2022-11-04T07:16:10.482Z,16.60
2022-11-04T07:18:39.467Z,16.60
2022-11-04T07:21:10.114Z,16.70
2022-11-04T07:23:57.996Z,16.80
2022-11-04T07:26:26.836Z,17.00
2022-11-04T07:28:55.660Z,17.20
2022-11-04T07:31:25.957Z,17.20
2022-11-04T07:33:55.548Z,17.30
2022-11-04T07:36:24.425Z,17.30
2022-11-04T07:38:53.175Z,17.30
2022-11-04T07:41:40.475Z,17.30
2022-11-04T07:44:28.178Z,17.30
2022-11-04T07:46:59.139Z,17.50
2022-11-04T07:49:28.240Z,17.80
2022-11-04T07:51:57.181Z,18.10
2022-11-04T07:54:25.947Z,18.00
2022-11-04T07:56:54.831Z,18.00
2022-11-04T07:59:23.668Z,17.80
2022-11-04T08:01:52.695Z,18.00
2022-11-04T08:04:23.071Z,17.90
2022-11-04T08:06:51.891Z,17.80
2022-11-04T08:09:20.844Z,17.80
2022-11-04T08:11:49.778Z,17.70
2022-11-04T08:14:18.578Z,17.70
2022-11-04T08:17:06.109Z,17.60
2022-11-04T08:19:55.117Z,17.50
2022-11-04T08:22:26.584Z,17.40
2022-11-04T08:24:59.242Z,17.20
2022-11-04T08:27:46.744Z,17.20
2022-11-04T08:30:34.499Z,17.10
2022-11-04T08:33:03.351Z,16.80
2022-11-04T08:35:37.018Z,16.50
2022-11-04T08:38:09.746Z,16.60
2022-11-04T08:40:39.155Z,16.40
2022-11-04T08:43:08.723Z,16.30
2022-11-04T08:45:42.174Z,16.00
2022-11-04T08:48:11.826Z,15.80
2022-11-04T08:50:42.508Z,15.70
2022-11-04T08:53:11.867Z,15.60
2022-11-04T08:55:41.300Z,15.20
2022-11-04T08:58:10.691Z,15.20
2022-11-04T09:00:40.046Z,15.00
2022-11-04T09:03:09.458Z,15.10
2022-11-04T09:05:57.238Z,15.00
2022-11-04T09:08:27.637Z,15.00
2022-11-04T09:10:56.642Z,15.10
2022-11-04T09:13:25.455Z,15.10
2022-11-04T09:15:55.533Z,15.10
2022-11-04T09:18:24.302Z,15.10
2022-11-04T09:20:53.233Z,15.10
2022-11-04T09:23:22.032Z,15.20
2022-11-04T09:25:52.311Z,15.40
2022-11-04T09:28:21.156Z,15.40
2022-11-04T09:30:51.047Z,15.30
2022-11-04T09:33:38.233Z,15.40
2022-11-04T09:36:08.573Z,15.30
2022-11-04T09:38:38.323Z,15.80
2022-11-04T09:41:22.851Z,15.40
2022-11-04T09:43:59.736Z,15.50
2022-11-04T09:46:31.558Z,15.50
2022-11-04T09:49:21.483Z,15.20
2022-11-04T09:51:55.712Z,15.30
2022-11-04T09:54:28.165Z,15.90
2022-11-04T09:57:01.152Z,16.20
2022-11-04T09:59:33.593Z,16.40
2022-11-04T10:02:35.859Z,16.30
2022-11-04T10:05:31.207Z,16.10
2022-11-04T10:08:22.200Z,16.20
2022-11-04T10:11:01.693Z,16.40
2022-11-04T10:13:46.003Z,16.60
2022-11-04T10:16:25.262Z,16.70
2022-11-04T10:19:18.511Z,16.60
2022-11-04T10:21:56.522Z,16.80
2022-11-04T10:24:33.323Z,16.80
2022-11-04T10:27:06.412Z,16.90
2022-11-04T10:29:42.233Z,17.10
2022-11-04T10:32:22.343Z,17.00
2022-11-04T10:34:57.190Z,17.20
2022-11-04T10:37:27.575Z,17.10
2022-11-04T10:40:03.702Z,16.70
2022-11-04T10:42:33.827Z,16.90
2022-11-04T10:45:04.122Z,16.90
2022-11-04T10:47:41.441Z,17.00
2022-11-04T10:50:30.840Z,16.80
2022-11-04T10:53:16.300Z,16.70
2022-11-04T10:55:52.871Z,17.10
2022-11-04T10:58:26.668Z,16.80
2022-11-04T11:01:15.456Z,16.60
2022-11-04T11:06:17.197Z,16.20
2022-11-04T11:11:16.818Z,16.10
2022-11-04T11:13:46.838Z,16.40
2022-11-04T11:16:39.785Z,16.80
2022-11-04T11:19:34.808Z,16.70
2022-11-04T11:22:03.791Z,16.70
2022-11-04T11:24:34.771Z,16.60
2022-11-04T11:27:14.767Z,16.60
2022-11-04T11:29:44.060Z,16.70
2022-11-04T11:32:30.327Z,16.90
2022-11-04T11:35:04.358Z,17.00
2022-11-04T11:37:35.604Z,17.00
2022-11-04T11:40:04.985Z,17.30
2022-11-04T11:42:34.860Z,17.00
2022-11-04T11:45:10.862Z,16.90
2022-11-04T11:47:42.649Z,17.30
2022-11-04T11:50:34.643Z,17.50
2022-11-04T11:53:45.831Z,17.50
2022-11-04T11:56:25.348Z,17.70
2022-11-04T12:02:08.593Z,17.80
2022-11-04T12:10:51.751Z,18.30
2022-11-04T12:13:29.408Z,18.10
2022-11-04T12:16:17.512Z,18.10
2022-11-04T12:19:19.649Z,18.30
2022-11-04T12:22:00.717Z,18.50
2022-11-04T12:24:41.368Z,17.90
2022-11-04T12:27:33.234Z,18.20
2022-11-04T12:30:14.792Z,18.60
2022-11-04T12:32:57.818Z,18.70
2022-11-04T12:35:40.095Z,18.30
2022-11-04T12:38:24.066Z,18.60
2022-11-04T12:43:58.347Z,19.20
2022-11-04T12:46:38.015Z,18.90
2022-11-04T12:49:32.027Z,18.90
2022-11-04T12:52:12.096Z,18.80
2022-11-04T12:54:52.217Z,18.90
2022-11-04T12:57:28.988Z,18.90
2022-11-04T13:00:12.017Z,18.80
2022-11-04T13:02:46.902Z,19.00
2022-11-04T13:05:38.579Z,19.20
2022-11-04T13:08:15.959Z,19.50
2022-11-04T13:10:53.708Z,20.10
2022-11-04T13:13:43.677Z,20.50
2022-11-04T13:16:13.867Z,20.50
2022-11-04T13:18:46.019Z,20.10
2022-11-04T13:21:19.958Z,19.70
2022-11-04T13:23:54.442Z,20.00
2022-11-04T13:26:25.069Z,20.30
2022-11-04T13:29:08.309Z,20.40
2022-11-04T13:31:48.225Z,20.30
2022-11-04T13:34:26.081Z,20.60
2022-11-04T13:37:02.774Z,20.60
2022-11-04T13:39:36.299Z,20.30
2022-11-04T13:42:35.866Z,20.40
2022-11-04T13:45:12.188Z,20.70
2022-11-04T13:47:52.019Z,20.60
2022-11-04T13:50:36.848Z,20.60
2022-11-04T13:53:07.539Z,19.90
2022-11-04T13:55:39.338Z,20.20
2022-11-04T13:58:19.303Z,20.60
2022-11-04T14:01:12.390Z,20.80
2022-11-04T14:03:53.157Z,21.30
2022-11-04T14:06:54.078Z,21.40
2022-11-04T14:10:01.290Z,21.00
2022-11-04T14:12:48.829Z,21.20
2022-11-04T14:15:57.652Z,21.40
2022-11-04T14:18:31.120Z,21.50
2022-11-04T14:21:06.724Z,21.50
2022-11-04T14:23:54.402Z,22.10
2022-11-04T14:26:25.779Z,22.20
2022-11-04T14:29:04.038Z,22.70
2022-11-04T14:31:39.039Z,22.40
2022-11-04T14:34:27.393Z,22.30
2022-11-04T14:37:16.529Z,22.50
2022-11-04T14:39:45.550Z,22.40
2022-11-04T14:42:15.969Z,22.00
2022-11-04T14:44:50.299Z,21.70
2022-11-04T14:47:25.770Z,21.80
2022-11-04T14:50:05.036Z,22.00
2022-11-04T14:52:39.190Z,22.10
2022-11-04T14:55:15.015Z,21.90
2022-11-04T14:57:45.929Z,22.20
2022-11-04T15:00:36.692Z,22.50
2022-11-04T15:03:57.501Z,23.40
2022-11-04T15:06:07.462Z,23.80
2022-11-04T15:08:38.718Z,23.30
2022-11-04T15:11:46.060Z,22.80
2022-11-04T15:14:19.078Z,22.90
2022-11-04T15:17:06.518Z,22.90
2022-11-04T15:19:37.728Z,22.50
2022-11-04T15:22:07.984Z,22.40
2022-11-04T15:24:37.456Z,21.80
2022-11-04T15:27:08.276Z,20.80
2022-11-04T15:29:37.246Z,20.70
2022-11-04T15:32:25.412Z,19.60
2022-11-04T15:34:57.203Z,19.10
2022-11-04T15:37:29.131Z,20.10
2022-11-04T15:40:01.128Z,18.90
2022-11-04T15:42:37.261Z,18.70
2022-11-04T15:45:41.065Z,18.60
2022-11-04T15:48:31.808Z,18.40
2022-11-04T15:51:25.616Z,18.30
2022-11-04T15:53:57.136Z,18.10
2022-11-04T15:56:29.045Z,18.10
2022-11-04T15:59:00.037Z,18.00
2022-11-04T16:01:29.543Z,17.80
2022-11-04T16:04:00.066Z,17.70
2022-11-04T16:06:38.793Z,17.60
2022-11-04T16:09:20.782Z,17.50
2022-11-04T16:12:15.782Z,17.40
2022-11-04T16:14:52.356Z,17.30
2022-11-04T16:17:22.063Z,17.30
2022-11-04T16:20:11.003Z,17.00
2022-11-04T16:22:46.314Z,17.00
2022-11-04T16:25:23.967Z,16.60
2022-11-04T16:27:53.182Z,16.90
2022-11-04T16:30:24.612Z,16.80
2022-11-04T16:33:12.907Z,16.40
2022-11-04T16:35:43.358Z,16.60
2022-11-04T16:38:13.793Z,16.70
2022-11-04T16:40:45.157Z,16.20
2022-11-04T16:43:14.907Z,16.20
2022-11-04T16:45:52.510Z,16.10
2022-11-04T16:48:41.517Z,16.10
2022-11-04T16:51:28.813Z,16.00
2022-11-04T16:53:59.200Z,16.20
2022-11-04T16:56:28.784Z,16.00
2022-11-04T16:59:16.189Z,15.90
2022-11-04T17:01:45.266Z,15.90
2022-11-04T17:04:14.918Z,15.90
2022-11-04T17:06:46.460Z,15.70
2022-11-04T17:09:23.629Z,15.60
2022-11-04T17:11:52.710Z,15.60
2022-11-04T17:14:21.731Z,15.80
2022-11-04T17:16:52.351Z,15.60
2022-11-04T17:19:21.380Z,15.40
2022-11-04T17:21:50.404Z,15.50
2022-11-04T17:24:20.838Z,15.50
2022-11-04T17:26:50.239Z,15.60
2022-11-04T17:29:19.193Z,15.50
2022-11-04T17:31:48.212Z,15.30
2022-11-04T17:34:17.111Z,15.50
2022-11-04T17:36:46.092Z,15.40
2022-11-04T17:39:15.006Z,15.60
2022-11-04T17:42:02.654Z,15.60
2022-11-04T17:44:31.613Z,15.50
2022-11-04T17:47:01.115Z,15.40
2022-11-04T17:49:30.890Z,15.30
2022-11-04T17:52:19.061Z,15.40
2022-11-04T17:54:48.142Z,15.20
2022-11-04T17:57:19.143Z,15.30
2022-11-04T18:00:08.442Z,15.20
2022-11-04T18:02:38.743Z,15.20
2022-11-04T18:05:08.858Z,15.50
2022-11-04T18:07:37.918Z,15.50
2022-11-04T18:10:07.995Z,15.40
2022-11-04T18:12:37.344Z,15.20
2022-11-04T18:15:24.562Z,15.00
2022-11-04T18:18:11.774Z,15.10
2022-11-04T18:20:40.725Z,15.10
2022-11-04T18:23:10.254Z,15.20
2022-11-04T18:25:41.125Z,15.00
2022-11-04T18:30:59.448Z,15.00
2022-11-04T18:33:28.448Z,14.90
2022-11-04T18:35:57.346Z,14.80
2022-11-04T18:38:26.311Z,14.90
2022-11-04T18:40:56.151Z,14.80
2022-11-04T18:43:25.153Z,15.00
2022-11-04T18:45:54.314Z,15.00
2022-11-04T18:48:24.702Z,15.00
2022-11-04T18:50:53.524Z,15.20
2022-11-04T18:53:26.869Z,14.80
2022-11-04T18:55:56.117Z,14.90
2022-11-04T18:58:45.131Z,15.00
2022-11-04T19:01:33.656Z,15.00
2022-11-04T19:04:04.108Z,14.90
2022-11-04T19:06:35.516Z,14.90
2022-11-04T19:09:32.176Z,14.90
2022-11-04T19:12:10.383Z,14.80
2022-11-04T19:14:40.156Z,14.60
2022-11-04T19:17:09.054Z,14.80
2022-11-04T19:22:08.642Z,14.80
2022-11-04T19:24:56.018Z,14.80
2022-11-04T19:27:25.242Z,14.70
2022-11-04T19:32:23.542Z,14.70
2022-11-04T19:34:53.864Z,14.60
2022-11-04T19:37:23.071Z,14.70
2022-11-04T19:39:51.920Z,14.60
2022-11-04T19:42:38.011Z,14.60
2022-11-04T19:45:25.364Z,14.60
2022-11-04T19:47:54.424Z,14.40
2022-11-04T19:50:24.942Z,14.10
2022-11-04T19:52:53.842Z,14.20
2022-11-04T19:55:22.887Z,14.20
2022-11-04T19:57:51.845Z,14.30
2022-11-04T20:00:23.357Z,14.30
2022-11-04T20:02:52.517Z,14.30
2022-11-04T20:05:21.477Z,14.10
2022-11-04T20:07:55.207Z,14.30
2022-11-04T20:10:24.966Z,14.30
2022-11-04T20:13:30.525Z,14.30
2022-11-04T20:15:59.616Z,14.30
2022-11-04T20:18:28.810Z,14.10
2022-11-04T20:21:17.022Z,14.20
2022-11-04T20:23:47.433Z,14.10
2022-11-04T20:26:20.594Z,14.40
2022-11-04T20:28:49.851Z,14.10
2022-11-04T20:31:20.164Z,14.20
2022-11-04T20:33:50.131Z,14.20
2022-11-04T20:36:22.155Z,14.20
2022-11-04T20:38:57.311Z,14.30
2022-11-04T20:41:26.343Z,13.80
2022-11-04T20:43:56.051Z,13.90
2022-11-04T20:46:26.968Z,13.60
2022-11-04T20:49:14.337Z,13.60
2022-11-04T20:51:53.332Z,13.70
2022-11-04T20:54:26.172Z,13.60
2022-11-04T20:56:55.076Z,13.70
2022-11-04T20:59:42.504Z,13.60
2022-11-04T21:02:13.582Z,13.40
2022-11-04T21:04:42.597Z,13.50
2022-11-04T21:07:11.475Z,13.40
2022-11-04T21:09:42.039Z,13.60
2022-11-04T21:12:11.145Z,13.50
2022-11-04T21:14:40.030Z,13.70
2022-11-04T21:17:09.120Z,13.50
2022-11-04T21:19:37.990Z,12.90
2022-11-04T21:22:06.828Z,13.10
2022-11-04T21:24:39.240Z,12.90
2022-11-04T21:27:09.929Z,13.00
2022-11-04T21:29:38.789Z,13.00
2022-11-04T21:32:08.042Z,12.90
2022-11-04T21:34:37.242Z,13.00
2022-11-04T21:37:06.145Z,12.80
2022-11-04T21:39:35.078Z,12.70
2022-11-04T21:42:23.789Z,12.60
2022-11-04T21:44:52.617Z,12.40
2022-11-04T21:47:21.397Z,12.50
2022-11-04T21:50:12.576Z,12.70
2022-11-04T21:52:44.122Z,12.60
2022-11-04T21:55:13.417Z,12.60
2022-11-04T21:57:44.158Z,12.80
2022-11-04T22:00:14.766Z,12.80
2022-11-04T22:02:44.413Z,12.60
2022-11-04T22:05:32.227Z,12.60
2022-11-04T22:10:48.541Z,12.80
2022-11-04T22:13:18.881Z,12.80
2022-11-04T22:15:59.735Z,13.10
2022-11-04T22:18:29.888Z,13.10
2022-11-04T22:21:02.222Z,13.00
2022-11-04T22:23:31.597Z,13.00
2022-11-04T22:26:03.919Z,13.00
2022-11-04T22:28:36.993Z,13.00
2022-11-04T22:31:09.480Z,13.00
2022-11-04T22:33:39.108Z,12.90
2022-11-04T22:36:09.099Z,13.00
2022-11-04T22:38:38.838Z,13.20
2022-11-04T22:41:11.191Z,13.30
2022-11-04T22:46:14.198Z,13.50
2022-11-04T22:51:32.622Z,13.50
2022-11-04T22:54:07.678Z,13.50
2022-11-04T22:56:37.525Z,13.50
2022-11-04T22:59:08.219Z,13.60
2022-11-04T23:01:37.214Z,13.40
2022-11-04T23:04:07.792Z,13.40
2022-11-04T23:06:36.636Z,13.30
2022-11-04T23:09:05.663Z,13.30
2022-11-04T23:11:52.207Z,13.30
2022-11-04T23:14:41.036Z,13.30
2022-11-04T23:17:33.846Z,13.20
2022-11-04T23:20:03.029Z,13.20
2022-11-04T23:23:08.481Z,13.10
2022-11-04T23:25:37.517Z,12.80
2022-11-04T23:28:24.095Z,12.80
2022-11-04T23:31:12.634Z,12.80
2022-11-04T23:34:16.933Z,12.60
2022-11-04T23:37:03.315Z,12.60
2022-11-04T23:39:32.152Z,12.50
2022-11-04T23:42:19.094Z,12.50
2022-11-04T23:45:09.762Z,12.60
2022-11-04T23:47:58.646Z,12.60
2022-11-04T23:50:46.794Z,13.00
2022-11-04T23:53:35.303Z,12.90
2022-11-04T23:56:21.762Z,12.90
2022-11-04T23:59:07.841Z,12.90
